sensor_id;sensor_type;location;lat;lon;timestamp;pressure;altitude;pressure_sealevel;temperature;humidity
38880;BME280;25887;30.194;-97.880;2022-12-07T00:00:53;98381.72;;;26.03;58.87
38880;BME280;25887;30.194;-97.880;2022-12-07T00:03:19;98382.75;;;26.00;58.86
38880;BME280;25887;30.194;-97.880;2022-12-07T00:05:45;98388.19;;;25.97;58.68
38880;BME280;25887;30.194;-97.880;2022-12-07T00:08:11;98386.72;;;25.93;58.81
38880;BME280;25887;30.194;-97.880;2022-12-07T00:10:37;98393.84;;;25.91;58.69
38880;BME280;25887;30.194;-97.880;2022-12-07T00:13:02;98391.41;;;25.88;58.92
38880;BME280;25887;30.194;-97.880;2022-12-07T00:15:30;98398.56;;;25.86;58.70
38880;BME280;25887;30.194;-97.880;2022-12-07T00:17:56;98396.94;;;25.83;58.85
38880;BME280;25887;30.194;-97.880;2022-12-07T00:20:22;98390.94;;;25.81;58.76
38880;BME280;25887;30.194;-97.880;2022-12-07T00:22:48;98390.28;;;25.78;58.53
38880;BME280;25887;30.194;-97.880;2022-12-07T00:25:14;98400.06;;;25.76;58.93
38880;BME280;25887;30.194;-97.880;2022-12-07T00:27:39;98407.19;;;25.74;58.80
38880;BME280;25887;30.194;-97.880;2022-12-07T00:30:06;98414.34;;;25.72;59.01
38880;BME280;25887;30.194;-97.880;2022-12-07T00:32:32;98420.63;;;25.69;58.77
38880;BME280;25887;30.194;-97.880;2022-12-07T00:34:58;98425.94;;;25.68;58.89
38880;BME280;25887;30.194;-97.880;2022-12-07T00:37:24;98430.47;;;25.66;58.90
38880;BME280;25887;30.194;-97.880;2022-12-07T00:39:50;98427.09;;;25.64;59.11
38880;BME280;25887;30.194;-97.880;2022-12-07T00:42:15;98427.28;;;25.61;58.79
38880;BME280;25887;30.194;-97.880;2022-12-07T00:44:41;98423.88;;;25.59;58.96
38880;BME280;25887;30.194;-97.880;2022-12-07T00:47:07;98429.34;;;25.55;59.05
38880;BME280;25887;30.194;-97.880;2022-12-07T00:49:33;98430.38;;;25.53;58.60
38880;BME280;25887;30.194;-97.880;2022-12-07T00:51:59;98423.59;;;25.49;58.94
38880;BME280;25887;30.194;-97.880;2022-12-07T00:54:25;98428.03;;;25.48;58.81
38880;BME280;25887;30.194;-97.880;2022-12-07T00:56:50;98428.22;;;25.45;58.95
38880;BME280;25887;30.194;-97.880;2022-12-07T00:59:16;98433.63;;;25.42;58.74
38880;BME280;25887;30.194;-97.880;2022-12-07T01:01:42;98426.88;;;25.38;58.93
38880;BME280;25887;30.194;-97.880;2022-12-07T01:04:08;98431.38;;;25.36;58.92
38880;BME280;25887;30.194;-97.880;2022-12-07T01:06:34;98446.41;;;25.34;58.94
38880;BME280;25887;30.194;-97.880;2022-12-07T01:09:02;98445.75;;;25.31;59.05
38880;BME280;25887;30.194;-97.880;2022-12-07T01:11:29;98448.53;;;25.27;58.88
38880;BME280;25887;30.194;-97.880;2022-12-07T01:13:57;98441.69;;;25.25;59.04
38880;BME280;25887;30.194;-97.880;2022-12-07T01:16:23;98436.63;;;25.22;58.92
38880;BME280;25887;30.194;-97.880;2022-12-07T01:18:50;98435.84;;;25.20;59.00
38880;BME280;25887;30.194;-97.880;2022-12-07T01:21:17;98442.03;;;25.19;59.23
38880;BME280;25887;30.194;-97.880;2022-12-07T01:23:45;98449.19;;;25.17;58.94
38880;BME280;25887;30.194;-97.880;2022-12-07T01:26:13;98447.59;;;25.14;58.94
38880;BME280;25887;30.194;-97.880;2022-12-07T01:28:39;98457.25;;;25.14;58.83
38880;BME280;25887;30.194;-97.880;2022-12-07T01:31:09;98448.59;;;25.12;58.96
38880;BME280;25887;30.194;-97.880;2022-12-07T01:33:37;98455.72;;;25.10;59.16
38880;BME280;25887;30.194;-97.880;2022-12-07T01:38:29;98469.06;;;25.07;58.96
38880;BME280;25887;30.194;-97.880;2022-12-07T01:40:55;98481.41;;;25.05;59.01
38880;BME280;25887;30.194;-97.880;2022-12-07T01:43:21;98492.03;;;25.03;59.07
38880;BME280;25887;30.194;-97.880;2022-12-07T01:45:49;98483.34;;;25.01;59.21
38880;BME280;25887;30.194;-97.880;2022-12-07T01:48:15;98483.44;;;24.99;59.20
38880;BME280;25887;30.194;-97.880;2022-12-07T01:50:43;98486.13;;;24.98;59.08
38880;BME280;25887;30.194;-97.880;2022-12-07T01:53:10;98486.22;;;24.96;59.05
38880;BME280;25887;30.194;-97.880;2022-12-07T01:55:37;98487.19;;;24.95;59.22
38880;BME280;25887;30.194;-97.880;2022-12-07T01:58:04;98491.59;;;24.95;59.14
38880;BME280;25887;30.194;-97.880;2022-12-07T02:00:30;98493.38;;;24.94;59.16
38880;BME280;25887;30.194;-97.880;2022-12-07T02:03:13;98496.94;;;24.93;59.21
38880;BME280;25887;30.194;-97.880;2022-12-07T02:05:41;98497.88;;;24.92;59.09
38880;BME280;25887;30.194;-97.880;2022-12-07T02:08:07;98500.59;;;24.91;59.16
38880;BME280;25887;30.194;-97.880;2022-12-07T02:10:33;98495.41;;;24.89;59.43
38880;BME280;25887;30.194;-97.880;2022-12-07T02:13:13;98505.91;;;24.89;59.18
38880;BME280;25887;30.194;-97.880;2022-12-07T02:29:07;98535.84;;;24.87;59.53
38880;BME280;25887;30.194;-97.880;2022-12-07T02:31:14;98541.97;;;24.87;59.47
38880;BME280;25887;30.194;-97.880;2022-12-07T02:33:50;98540.25;;;24.86;59.71
38880;BME280;25887;30.194;-97.880;2022-12-07T02:41:56;98528.06;;;24.85;59.67
38880;BME280;25887;30.194;-97.880;2022-12-07T02:44:06;98533.31;;;24.85;59.78
38880;BME280;25887;30.194;-97.880;2022-12-07T02:46:36;98542.13;;;24.84;59.95
38880;BME280;25887;30.194;-97.880;2022-12-07T02:49:03;98536.03;;;24.84;59.98
38880;BME280;25887;30.194;-97.880;2022-12-07T02:51:30;98536.03;;;24.84;60.01
38880;BME280;25887;30.194;-97.880;2022-12-07T02:53:56;98536.88;;;24.84;59.90
38880;BME280;25887;30.194;-97.880;2022-12-07T03:02:10;98540.25;;;24.86;60.21
38880;BME280;25887;30.194;-97.880;2022-12-07T03:07:20;98527.22;;;24.85;60.59
38880;BME280;25887;30.194;-97.880;2022-12-07T03:10:05;98535.94;;;24.85;61.02
38880;BME280;25887;30.194;-97.880;2022-12-07T03:13:18;98543.81;;;24.85;61.10
38880;BME280;25887;30.194;-97.880;2022-12-07T03:17:50;98549.94;;;24.86;61.22
38880;BME280;25887;30.194;-97.880;2022-12-07T03:20:17;98551.72;;;24.85;61.34
38880;BME280;25887;30.194;-97.880;2022-12-07T03:22:45;98561.28;;;24.86;61.14
38880;BME280;25887;30.194;-97.880;2022-12-07T03:25:13;98568.25;;;24.87;61.16
38880;BME280;25887;30.194;-97.880;2022-12-07T03:27:53;98571.63;;;24.89;61.19
38880;BME280;25887;30.194;-97.880;2022-12-07T03:30:27;98587.38;;;24.89;61.28
38880;BME280;25887;30.194;-97.880;2022-12-07T03:33:03;98584.75;;;24.89;61.21
38880;BME280;25887;30.194;-97.880;2022-12-07T03:35:33;98589.13;;;24.90;61.30
38880;BME280;25887;30.194;-97.880;2022-12-07T03:42:53;98588.22;;;24.90;61.58
38880;BME280;25887;30.194;-97.880;2022-12-07T03:45:24;98595.28;;;24.89;61.66
38880;BME280;25887;30.194;-97.880;2022-12-07T03:48:00;98606.72;;;24.88;61.66
38880;BME280;25887;30.194;-97.880;2022-12-07T03:56:08;98606.63;;;24.90;61.39
38880;BME280;25887;30.194;-97.880;2022-12-07T03:58:35;98599.69;;;24.89;61.51
38880;BME280;25887;30.194;-97.880;2022-12-07T04:01:02;98595.28;;;24.89;61.49
38880;BME280;25887;30.194;-97.880;2022-12-07T04:03:28;98598.75;;;24.90;61.42
38880;BME280;25887;30.194;-97.880;2022-12-07T04:05:54;98612.81;;;24.89;61.73
38880;BME280;25887;30.194;-97.880;2022-12-07T04:08:20;98617.25;;;24.88;61.43
38880;BME280;25887;30.194;-97.880;2022-12-07T04:10:46;98625.13;;;24.88;61.43
38880;BME280;25887;30.194;-97.880;2022-12-07T04:13:12;98621.66;;;24.88;61.65
38880;BME280;25887;30.194;-97.880;2022-12-07T04:15:38;98623.44;;;24.87;61.43
38880;BME280;25887;30.194;-97.880;2022-12-07T04:18:04;98639.28;;;24.86;61.48
38880;BME280;25887;30.194;-97.880;2022-12-07T04:20:30;98632.34;;;24.85;61.48
38880;BME280;25887;30.194;-97.880;2022-12-07T04:22:56;98636.75;;;24.84;61.42
38880;BME280;25887;30.194;-97.880;2022-12-07T04:25:22;98636.75;;;24.84;61.52
38880;BME280;25887;30.194;-97.880;2022-12-07T04:27:47;98636.75;;;24.84;61.57
38880;BME280;25887;30.194;-97.880;2022-12-07T04:30:13;98643.84;;;24.82;61.47
38880;BME280;25887;30.194;-97.880;2022-12-07T04:32:39;98653.50;;;24.82;61.48
38880;BME280;25887;30.194;-97.880;2022-12-07T04:35:05;98664.88;;;24.82;61.38
38880;BME280;25887;30.194;-97.880;2022-12-07T04:37:31;98662.25;;;24.82;61.59
38880;BME280;25887;30.194;-97.880;2022-12-07T04:39:57;98672.84;;;24.81;61.45
38880;BME280;25887;30.194;-97.880;2022-12-07T04:42:23;98672.84;;;24.81;61.48
38880;BME280;25887;30.194;-97.880;2022-12-07T04:44:49;98672.00;;;24.80;61.54
38880;BME280;25887;30.194;-97.880;2022-12-07T04:47:16;98668.59;;;24.78;61.66
38880;BME280;25887;30.194;-97.880;2022-12-07T04:49:42;98666.91;;;24.77;61.50
38880;BME280;25887;30.194;-97.880;2022-12-07T04:52:08;98666.16;;;24.75;61.78
38880;BME280;25887;30.194;-97.880;2022-12-07T04:54:33;98681.91;;;24.75;61.84
38880;BME280;25887;30.194;-97.880;2022-12-07T04:56:59;98672.41;;;24.72;61.67
38880;BME280;25887;30.194;-97.880;2022-12-07T04:59:25;98679.44;;;24.72;61.54
38880;BME280;25887;30.194;-97.880;2022-12-07T05:01:51;98695.19;;;24.72;61.64
38880;BME280;25887;30.194;-97.880;2022-12-07T05:04:17;98696.22;;;24.69;61.56
38880;BME280;25887;30.194;-97.880;2022-12-07T05:06:43;98704.09;;;24.69;61.51
38880;BME280;25887;30.194;-97.880;2022-12-07T05:09:09;98708.59;;;24.67;61.57
38880;BME280;25887;30.194;-97.880;2022-12-07T05:11:35;98699.88;;;24.67;61.62
38880;BME280;25887;30.194;-97.880;2022-12-07T05:14:05;98710.38;;;24.67;61.63
38880;BME280;25887;30.194;-97.880;2022-12-07T05:16:32;98712.13;;;24.66;61.67
38880;BME280;25887;30.194;-97.880;2022-12-07T05:18:58;98723.50;;;24.67;61.80
38880;BME280;25887;30.194;-97.880;2022-12-07T05:21:24;98727.03;;;24.66;61.44
38880;BME280;25887;30.194;-97.880;2022-12-07T05:23:50;98724.38;;;24.67;61.49
38880;BME280;25887;30.194;-97.880;2022-12-07T05:26:16;98727.88;;;24.66;61.54
38880;BME280;25887;30.194;-97.880;2022-12-07T05:28:42;98731.31;;;24.68;61.49
38880;BME280;25887;30.194;-97.880;2022-12-07T05:31:08;98736.66;;;24.67;61.59
38880;BME280;25887;30.194;-97.880;2022-12-07T05:33:35;98735.78;;;24.66;61.46
38880;BME280;25887;30.194;-97.880;2022-12-07T05:36:01;98735.78;;;24.66;61.37
38880;BME280;25887;30.194;-97.880;2022-12-07T05:38:33;98734.94;;;24.66;61.45
38880;BME280;25887;30.194;-97.880;2022-12-07T05:41:00;98734.16;;;24.64;61.54
38880;BME280;25887;30.194;-97.880;2022-12-07T05:43:26;98734.16;;;24.64;61.60
38880;BME280;25887;30.194;-97.880;2022-12-07T05:45:52;98732.47;;;24.63;61.54
38880;BME280;25887;30.194;-97.880;2022-12-07T05:48:18;98737.72;;;24.63;61.54
38880;BME280;25887;30.194;-97.880;2022-12-07T05:50:47;98736.03;;;24.62;61.54
38880;BME280;25887;30.194;-97.880;2022-12-07T05:53:13;98735.19;;;24.61;61.55
38880;BME280;25887;30.194;-97.880;2022-12-07T05:55:38;98731.72;;;24.61;61.67
38880;BME280;25887;30.194;-97.880;2022-12-07T05:58:04;98736.16;;;24.59;61.58
38880;BME280;25887;30.194;-97.880;2022-12-07T06:00:48;98743.28;;;24.57;61.60
38880;BME280;25887;30.194;-97.880;2022-12-07T06:03:14;98746.84;;;24.56;61.50
38880;BME280;25887;30.194;-97.880;2022-12-07T06:05:40;98746.09;;;24.54;61.68
38880;BME280;25887;30.194;-97.880;2022-12-07T06:08:06;98753.97;;;24.54;61.55
38880;BME280;25887;30.194;-97.880;2022-12-07T06:10:32;98758.44;;;24.52;61.57
38880;BME280;25887;30.194;-97.880;2022-12-07T06:12:58;98753.19;;;24.52;61.81
38880;BME280;25887;30.194;-97.880;2022-12-07T06:15:24;98755.81;;;24.52;61.65
38880;BME280;25887;30.194;-97.880;2022-12-07T06:17:50;98760.19;;;24.51;61.60
38880;BME280;25887;30.194;-97.880;2022-12-07T06:20:16;98757.66;;;24.50;61.56
38880;BME280;25887;30.194;-97.880;2022-12-07T06:22:42;98762.91;;;24.50;61.75
38880;BME280;25887;30.194;-97.880;2022-12-07T06:25:08;98760.44;;;24.47;61.81
38880;BME280;25887;30.194;-97.880;2022-12-07T06:27:35;98765.78;;;24.45;61.80
38880;BME280;25887;30.194;-97.880;2022-12-07T06:30:01;98758.84;;;24.44;61.67
38880;BME280;25887;30.194;-97.880;2022-12-07T06:32:35;98758.03;;;24.42;61.57
38880;BME280;25887;30.194;-97.880;2022-12-07T06:35:01;98757.19;;;24.41;61.78
38880;BME280;25887;30.194;-97.880;2022-12-07T06:37:27;98752.03;;;24.40;61.82
38880;BME280;25887;30.194;-97.880;2022-12-07T06:39:53;98753.03;;;24.37;61.75
38880;BME280;25887;30.194;-97.880;2022-12-07T06:42:19;98761.75;;;24.38;61.84
38880;BME280;25887;30.194;-97.880;2022-12-07T06:44:44;98759.22;;;24.36;61.80
38880;BME280;25887;30.194;-97.880;2022-12-07T06:47:10;98767.09;;;24.36;61.54
38880;BME280;25887;30.194;-97.880;2022-12-07T06:49:36;98768.78;;;24.37;61.93
38880;BME280;25887;30.194;-97.880;2022-12-07T06:52:02;98757.50;;;24.35;61.71
38880;BME280;25887;30.194;-97.880;2022-12-07T06:54:30;98763.63;;;24.36;61.84
38880;BME280;25887;30.194;-97.880;2022-12-07T06:56:55;98771.56;;;24.34;61.55
38880;BME280;25887;30.194;-97.880;2022-12-07T06:59:21;98772.41;;;24.35;61.75
38880;BME280;25887;30.194;-97.880;2022-12-07T07:01:47;98769.00;;;24.33;61.74
38880;BME280;25887;30.194;-97.880;2022-12-07T07:04:13;98766.44;;;24.31;61.92
38880;BME280;25887;30.194;-97.880;2022-12-07T07:06:40;98765.59;;;24.31;62.01
38880;BME280;25887;30.194;-97.880;2022-12-07T07:09:05;98761.25;;;24.30;61.80
38880;BME280;25887;30.194;-97.880;2022-12-07T07:11:31;98761.34;;;24.28;61.94
38880;BME280;25887;30.194;-97.880;2022-12-07T07:13:57;98757.00;;;24.27;62.07
38880;BME280;25887;30.194;-97.880;2022-12-07T07:16:27;98760.56;;;24.26;62.04
38880;BME280;25887;30.194;-97.880;2022-12-07T07:18:54;98758.84;;;24.25;62.12
38880;BME280;25887;30.194;-97.880;2022-12-07T07:21:25;98763.25;;;24.25;61.98
38880;BME280;25887;30.194;-97.880;2022-12-07T07:23:51;98765.03;;;24.24;61.92
38880;BME280;25887;30.194;-97.880;2022-12-07T07:26:17;98774.69;;;24.24;62.00
38880;BME280;25887;30.194;-97.880;2022-12-07T07:28:43;98776.47;;;24.23;62.09
38880;BME280;25887;30.194;-97.880;2022-12-07T07:31:08;98774.78;;;24.22;62.02
38880;BME280;25887;30.194;-97.880;2022-12-07T07:33:34;98773.94;;;24.22;61.82
38880;BME280;25887;30.194;-97.880;2022-12-07T07:36:00;98780.03;;;24.22;62.15
38880;BME280;25887;30.194;-97.880;2022-12-07T07:38:26;98777.47;;;24.21;62.11
38880;BME280;25887;30.194;-97.880;2022-12-07T07:40:56;98781.84;;;24.20;61.94
38880;BME280;25887;30.194;-97.880;2022-12-07T07:43:22;98788.88;;;24.19;61.97
38880;BME280;25887;30.194;-97.880;2022-12-07T07:45:48;98790.75;;;24.17;61.98
38880;BME280;25887;30.194;-97.880;2022-12-07T07:48:13;98791.59;;;24.18;61.95
38880;BME280;25887;30.194;-97.880;2022-12-07T07:50:39;98796.06;;;24.16;62.02
38880;BME280;25887;30.194;-97.880;2022-12-07T07:53:05;98796.91;;;24.16;62.33
38880;BME280;25887;30.194;-97.880;2022-12-07T07:55:31;98793.44;;;24.16;62.19
38880;BME280;25887;30.194;-97.880;2022-12-07T07:57:57;98804.03;;;24.14;62.15
38880;BME280;25887;30.194;-97.880;2022-12-07T08:00:23;98799.72;;;24.13;62.27
38880;BME280;25887;30.194;-97.880;2022-12-07T08:02:49;98803.25;;;24.12;62.16
38880;BME280;25887;30.194;-97.880;2022-12-07T08:05:15;98809.34;;;24.13;62.28
38880;BME280;25887;30.194;-97.880;2022-12-07T08:07:45;98803.25;;;24.12;62.27
38880;BME280;25887;30.194;-97.880;2022-12-07T08:10:11;98799.75;;;24.12;62.08
38880;BME280;25887;30.194;-97.880;2022-12-07T08:12:40;98804.16;;;24.11;61.99
38880;BME280;25887;30.194;-97.880;2022-12-07T08:15:27;98799.75;;;24.12;61.92
38880;BME280;25887;30.194;-97.880;2022-12-07T08:17:53;98802.38;;;24.12;62.18
38880;BME280;25887;30.194;-97.880;2022-12-07T08:20:19;98797.13;;;24.12;62.14
38880;BME280;25887;30.194;-97.880;2022-12-07T08:22:45;98802.38;;;24.12;62.22
38880;BME280;25887;30.194;-97.880;2022-12-07T08:25:11;98803.31;;;24.11;62.19
38880;BME280;25887;30.194;-97.880;2022-12-07T08:27:36;98807.63;;;24.12;62.08
38880;BME280;25887;30.194;-97.880;2022-12-07T08:30:02;98807.72;;;24.10;62.08
38880;BME280;25887;30.194;-97.880;2022-12-07T08:32:28;98811.19;;;24.11;62.29
38880;BME280;25887;30.194;-97.880;2022-12-07T08:34:55;98814.75;;;24.10;62.03
38880;BME280;25887;30.194;-97.880;2022-12-07T08:37:21;98817.38;;;24.10;62.13
38880;BME280;25887;30.194;-97.880;2022-12-07T08:39:47;98829.56;;;24.11;62.11
38880;BME280;25887;30.194;-97.880;2022-12-07T08:42:13;98826.94;;;24.11;62.10
38880;BME280;25887;30.194;-97.880;2022-12-07T08:44:38;98833.88;;;24.12;62.20
38880;BME280;25887;30.194;-97.880;2022-12-07T08:47:05;98838.28;;;24.11;62.21
38880;BME280;25887;30.194;-97.880;2022-12-07T08:49:33;98840.91;;;24.11;62.27
38880;BME280;25887;30.194;-97.880;2022-12-07T08:52:01;98839.22;;;24.10;62.28
38880;BME280;25887;30.194;-97.880;2022-12-07T08:54:29;98833.97;;;24.10;61.96
38880;BME280;25887;30.194;-97.880;2022-12-07T08:56:57;98825.25;;;24.10;62.07
38880;BME280;25887;30.194;-97.880;2022-12-07T08:59:23;98824.38;;;24.09;62.11
38880;BME280;25887;30.194;-97.880;2022-12-07T09:01:49;98829.72;;;24.08;62.35
38880;BME280;25887;30.194;-97.880;2022-12-07T09:04:15;98834.13;;;24.07;62.13
38880;BME280;25887;30.194;-97.880;2022-12-07T09:06:41;98826.16;;;24.09;61.97
38880;BME280;25887;30.194;-97.880;2022-12-07T09:09:07;98829.72;;;24.08;61.98
38880;BME280;25887;30.194;-97.880;2022-12-07T09:11:34;98832.34;;;24.08;62.04
38880;BME280;25887;30.194;-97.880;2022-12-07T09:14:00;98830.56;;;24.08;61.85
38880;BME280;25887;30.194;-97.880;2022-12-07T09:16:26;98835.81;;;24.08;61.87
38880;BME280;25887;30.194;-97.880;2022-12-07T09:18:52;98833.19;;;24.08;62.02
38880;BME280;25887;30.194;-97.880;2022-12-07T09:21:18;98837.59;;;24.08;62.12
38880;BME280;25887;30.194;-97.880;2022-12-07T09:23:43;98850.72;;;24.08;61.92
38880;BME280;25887;30.194;-97.880;2022-12-07T09:26:09;98841.16;;;24.07;62.21
38880;BME280;25887;30.194;-97.880;2022-12-07T09:28:35;98839.38;;;24.07;61.79
38880;BME280;25887;30.194;-97.880;2022-12-07T09:31:02;98842.84;;;24.08;62.08
38880;BME280;25887;30.194;-97.880;2022-12-07T09:33:28;98841.16;;;24.07;62.02
38880;BME280;25887;30.194;-97.880;2022-12-07T09:35:54;98841.06;;;24.08;61.91
38880;BME280;25887;30.194;-97.880;2022-12-07T09:38:20;98838.53;;;24.07;62.04
38880;BME280;25887;30.194;-97.880;2022-12-07T09:40:46;98836.81;;;24.06;61.89
38880;BME280;25887;30.194;-97.880;2022-12-07T09:43:13;98834.19;;;24.06;62.09
38880;BME280;25887;30.194;-97.880;2022-12-07T09:45:40;98834.25;;;24.04;62.19
38880;BME280;25887;30.194;-97.880;2022-12-07T09:48:13;98836.88;;;24.04;62.07
38880;BME280;25887;30.194;-97.880;2022-12-07T09:50:41;98845.66;;;24.03;62.10
38880;BME280;25887;30.194;-97.880;2022-12-07T09:53:08;98835.16;;;24.03;61.84
38880;BME280;25887;30.194;-97.880;2022-12-07T09:55:38;98835.25;;;24.02;62.25
38880;BME280;25887;30.194;-97.880;2022-12-07T09:58:03;98833.56;;;24.01;61.86
38880;BME280;25887;30.194;-97.880;2022-12-07T10:00:29;98836.19;;;24.01;61.97
38880;BME280;25887;30.194;-97.880;2022-12-07T10:02:59;98830.94;;;24.01;61.91
38880;BME280;25887;30.194;-97.880;2022-12-07T10:07:51;98829.31;;;23.98;62.00
38880;BME280;25887;30.194;-97.880;2022-12-07T10:10:24;98830.16;;;23.99;61.94
38880;BME280;25887;30.194;-97.880;2022-12-07T10:12:55;98835.50;;;23.97;62.21
38880;BME280;25887;30.194;-97.880;2022-12-07T10:15:21;98840.78;;;23.96;62.20
38880;BME280;25887;30.194;-97.880;2022-12-07T10:17:48;98830.28;;;23.96;61.87
38880;BME280;25887;30.194;-97.880;2022-12-07T10:22:54;98838.25;;;23.94;62.01
38880;BME280;25887;30.194;-97.880;2022-12-07T10:25:21;98835.69;;;23.93;62.28
38880;BME280;25887;30.194;-97.880;2022-12-07T10:28:00;98829.59;;;23.92;62.25
38880;BME280;25887;30.194;-97.880;2022-12-07T10:30:26;98834.00;;;23.92;62.17
38880;BME280;25887;30.194;-97.880;2022-12-07T10:32:52;98833.16;;;23.91;62.13
38880;BME280;25887;30.194;-97.880;2022-12-07T10:37:47;98839.38;;;23.88;61.99
38880;BME280;25887;30.194;-97.880;2022-12-07T10:42:59;98827.25;;;23.86;62.09
38880;BME280;25887;30.194;-97.880;2022-12-07T10:45:25;98834.28;;;23.85;61.95
38880;BME280;25887;30.194;-97.880;2022-12-07T10:51:04;98826.56;;;23.82;62.08
38880;BME280;25887;30.194;-97.880;2022-12-07T10:53:42;98833.59;;;23.82;62.16
38880;BME280;25887;30.194;-97.880;2022-12-07T10:56:26;98832.72;;;23.81;62.10
38880;BME280;25887;30.194;-97.880;2022-12-07T11:01:32;98839.81;;;23.79;62.28
38880;BME280;25887;30.194;-97.880;2022-12-07T11:04:14;98844.28;;;23.77;62.47
38880;BME280;25887;30.194;-97.880;2022-12-07T11:14:40;98856.75;;;23.72;62.66
38880;BME280;25887;30.194;-97.880;2022-12-07T11:20:21;98863.84;;;23.70;62.41
38880;BME280;25887;30.194;-97.880;2022-12-07T11:35:38;98871.97;;;23.64;62.50
38880;BME280;25887;30.194;-97.880;2022-12-07T11:38:17;98873.75;;;23.63;62.25
38880;BME280;25887;30.194;-97.880;2022-12-07T11:40:49;98885.09;;;23.64;62.63
38880;BME280;25887;30.194;-97.880;2022-12-07T11:43:28;98882.47;;;23.64;62.52
38880;BME280;25887;30.194;-97.880;2022-12-07T11:48:33;98881.72;;;23.62;62.68
38880;BME280;25887;30.194;-97.880;2022-12-07T11:51:01;98886.03;;;23.63;62.46
38880;BME280;25887;30.194;-97.880;2022-12-07T11:56:13;98886.94;;;23.62;62.57
38880;BME280;25887;30.194;-97.880;2022-12-07T11:58:49;98886.94;;;23.62;62.70
38880;BME280;25887;30.194;-97.880;2022-12-07T12:01:31;98888.72;;;23.61;62.38
38880;BME280;25887;30.194;-97.880;2022-12-07T12:09:04;98887.06;;;23.59;62.56
38880;BME280;25887;30.194;-97.880;2022-12-07T12:11:47;98888.84;;;23.58;62.79
38880;BME280;25887;30.194;-97.880;2022-12-07T12:19:42;98901.22;;;23.55;62.42
38880;BME280;25887;30.194;-97.880;2022-12-07T12:24:37;98907.41;;;23.54;62.63
38880;BME280;25887;30.194;-97.880;2022-12-07T12:27:07;98914.34;;;23.55;62.50
38880;BME280;25887;30.194;-97.880;2022-12-07T12:34:34;98915.34;;;23.52;62.31
38880;BME280;25887;30.194;-97.880;2022-12-07T12:37:09;98917.13;;;23.52;62.50
38880;BME280;25887;30.194;-97.880;2022-12-07T12:39:39;98911.06;;;23.50;62.51
38880;BME280;25887;30.194;-97.880;2022-12-07T12:42:05;98914.69;;;23.47;62.61
38880;BME280;25887;30.194;-97.880;2022-12-07T12:45:02;98919.06;;;23.47;62.59
38880;BME280;25887;30.194;-97.880;2022-12-07T12:47:39;98934.94;;;23.44;62.89
38880;BME280;25887;30.194;-97.880;2022-12-07T12:55:17;98944.78;;;23.39;62.73
38880;BME280;25887;30.194;-97.880;2022-12-07T12:57:46;98948.31;;;23.38;62.76
38880;BME280;25887;30.194;-97.880;2022-12-07T13:00:16;98952.78;;;23.35;62.97
38880;BME280;25887;30.194;-97.880;2022-12-07T13:03:00;98954.59;;;23.33;62.62
38880;BME280;25887;30.194;-97.880;2022-12-07T13:05:26;98963.38;;;23.32;62.95
38880;BME280;25887;30.194;-97.880;2022-12-07T13:07:54;98963.47;;;23.31;62.69
38880;BME280;25887;30.194;-97.880;2022-12-07T13:15:35;98980.19;;;23.28;62.80
38880;BME280;25887;30.194;-97.880;2022-12-07T13:18:03;98972.31;;;23.28;62.85
38880;BME280;25887;30.194;-97.880;2022-12-07T13:28:51;98988.97;;;23.27;62.77
38880;BME280;25887;30.194;-97.880;2022-12-07T13:31:31;98993.38;;;23.27;62.67
38880;BME280;25887;30.194;-97.880;2022-12-07T13:33:58;98984.56;;;23.28;62.71
38880;BME280;25887;30.194;-97.880;2022-12-07T13:36:38;98988.97;;;23.27;62.80
38880;BME280;25887;30.194;-97.880;2022-12-07T13:41:57;99000.31;;;23.28;62.95
38880;BME280;25887;30.194;-97.880;2022-12-07T13:49:54;99003.84;;;23.27;63.11
38880;BME280;25887;30.194;-97.880;2022-12-07T13:52:21;99020.44;;;23.27;62.95
38880;BME280;25887;30.194;-97.880;2022-12-07T13:54:49;99024.75;;;23.28;63.00
38880;BME280;25887;30.194;-97.880;2022-12-07T13:57:16;99027.38;;;23.28;63.17
38880;BME280;25887;30.194;-97.880;2022-12-07T13:59:42;99030.00;;;23.28;63.26
38880;BME280;25887;30.194;-97.880;2022-12-07T14:02:19;99029.09;;;23.29;63.17
38880;BME280;25887;30.194;-97.880;2022-12-07T14:04:46;99030.78;;;23.30;63.03
38880;BME280;25887;30.194;-97.880;2022-12-07T14:07:31;99026.38;;;23.31;63.17
38880;BME280;25887;30.194;-97.880;2022-12-07T14:10:05;99027.25;;;23.31;63.20
38880;BME280;25887;30.194;-97.880;2022-12-07T14:15:28;99031.56;;;23.32;63.25
38880;BME280;25887;30.194;-97.880;2022-12-07T14:17:56;99029.78;;;23.33;63.09
38880;BME280;25887;30.194;-97.880;2022-12-07T14:20:29;99035.88;;;23.33;63.49
38880;BME280;25887;30.194;-97.880;2022-12-07T14:22:56;99037.59;;;23.34;63.50
38880;BME280;25887;30.194;-97.880;2022-12-07T14:25:22;99040.22;;;23.34;63.57
38880;BME280;25887;30.194;-97.880;2022-12-07T14:27:53;99043.72;;;23.35;63.32
38880;BME280;25887;30.194;-97.880;2022-12-07T14:30:21;99048.97;;;23.35;63.74
38880;BME280;25887;30.194;-97.880;2022-12-07T14:32:50;99044.56;;;23.35;63.59
38880;BME280;25887;30.194;-97.880;2022-12-07T14:35:17;99047.19;;;23.35;63.47
38880;BME280;25887;30.194;-97.880;2022-12-07T14:37:44;99055.06;;;23.35;63.62
38880;BME280;25887;30.194;-97.880;2022-12-07T14:40:18;99055.91;;;23.36;63.72
38880;BME280;25887;30.194;-97.880;2022-12-07T14:42:44;99057.59;;;23.37;63.72
38880;BME280;25887;30.194;-97.880;2022-12-07T14:45:16;99058.47;;;23.38;63.53
38880;BME280;25887;30.194;-97.880;2022-12-07T14:47:42;99072.34;;;23.40;63.72
38880;BME280;25887;30.194;-97.880;2022-12-07T14:50:11;99066.25;;;23.39;63.67
38880;BME280;25887;30.194;-97.880;2022-12-07T14:52:37;99075.75;;;23.42;63.88
38880;BME280;25887;30.194;-97.880;2022-12-07T14:55:04;99077.53;;;23.41;63.99
38880;BME280;25887;30.194;-97.880;2022-12-07T14:57:30;99075.75;;;23.42;63.92
38880;BME280;25887;30.194;-97.880;2022-12-07T14:59:56;99082.72;;;23.43;63.57